sensor_id;sensor_type;location;lat;lon;timestamp;P1;durP1;ratioP1;P2;durP2;ratioP2
29026;SDS011;16120;48.608;9.092;2023-12-28T00:03:20;117.20;;;8.73;;
29026;SDS011;16120;48.608;9.092;2023-12-28T00:07:15;117.17;;;8.93;;
29026;SDS011;16120;48.608;9.092;2023-12-28T00:11:12;117.50;;;8.90;;
29026;SDS011;16120;48.608;9.092;2023-12-28T00:15:07;117.30;;;9.50;;
29026;SDS011;16120;48.608;9.092;2023-12-28T00:19:03;117.50;;;9.50;;
29026;SDS011;16120;48.608;9.092;2023-12-28T00:22:58;116.47;;;9.10;;
29026;SDS011;16120;48.608;9.092;2023-12-28T00:26:54;117.03;;;8.93;;
29026;SDS011;16120;48.608;9.092;2023-12-28T00:30:50;117.23;;;8.90;;
29026;SDS011;16120;48.608;9.092;2023-12-28T00:34:45;117.00;;;9.07;;
29026;SDS011;16120;48.608;9.092;2023-12-28T00:38:40;117.37;;;9.10;;
29026;SDS011;16120;48.608;9.092;2023-12-28T00:42:36;116.57;;;8.73;;
29026;SDS011;16120;48.608;9.092;2023-12-28T00:46:32;117.07;;;8.97;;
29026;SDS011;16120;48.608;9.092;2023-12-28T00:50:27;117.30;;;9.07;;
29026;SDS011;16120;48.608;9.092;2023-12-28T00:54:22;117.23;;;8.63;;
29026;SDS011;16120;48.608;9.092;2023-12-28T00:58:18;117.43;;;8.77;;
29026;SDS011;16120;48.608;9.092;2023-12-28T01:02:14;117.00;;;8.97;;
29026;SDS011;16120;48.608;9.092;2023-12-28T01:06:09;116.73;;;9.33;;
29026;SDS011;16120;48.608;9.092;2023-12-28T01:10:04;116.97;;;9.07;;
29026;SDS011;16120;48.608;9.092;2023-12-28T01:14:01;116.77;;;9.00;;
29026;SDS011;16120;48.608;9.092;2023-12-28T01:17:56;117.17;;;8.87;;
29026;SDS011;16120;48.608;9.092;2023-12-28T01:21:51;116.87;;;9.37;;
29026;SDS011;16120;48.608;9.092;2023-12-28T01:25:47;118.27;;;9.87;;
29026;SDS011;16120;48.608;9.092;2023-12-28T01:29:43;117.60;;;9.07;;
29026;SDS011;16120;48.608;9.092;2023-12-28T01:33:38;117.73;;;8.80;;
29026;SDS011;16120;48.608;9.092;2023-12-28T01:37:33;118.07;;;9.57;;
29026;SDS011;16120;48.608;9.092;2023-12-28T01:41:29;117.87;;;9.53;;
29026;SDS011;16120;48.608;9.092;2023-12-28T01:45:25;118.07;;;9.30;;
29026;SDS011;16120;48.608;9.092;2023-12-28T01:49:20;118.30;;;9.27;;
29026;SDS011;16120;48.608;9.092;2023-12-28T01:53:16;118.53;;;10.17;;
29026;SDS011;16120;48.608;9.092;2023-12-28T01:57:11;118.20;;;9.17;;
29026;SDS011;16120;48.608;9.092;2023-12-28T02:01:09;118.33;;;9.07;;
29026;SDS011;16120;48.608;9.092;2023-12-28T02:05:05;118.60;;;9.20;;
29026;SDS011;16120;48.608;9.092;2023-12-28T02:09:01;118.27;;;8.93;;
29026;SDS011;16120;48.608;9.092;2023-12-28T02:12:56;118.10;;;9.23;;
29026;SDS011;16120;48.608;9.092;2023-12-28T02:16:54;119.17;;;9.10;;
29026;SDS011;16120;48.608;9.092;2023-12-28T02:20:51;119.27;;;9.23;;
29026;SDS011;16120;48.608;9.092;2023-12-28T02:24:59;119.60;;;9.60;;
29026;SDS011;16120;48.608;9.092;2023-12-28T02:28:54;119.30;;;9.70;;
29026;SDS011;16120;48.608;9.092;2023-12-28T02:32:54;119.47;;;9.70;;
29026;SDS011;16120;48.608;9.092;2023-12-28T02:36:51;119.67;;;9.73;;
29026;SDS011;16120;48.608;9.092;2023-12-28T02:40:48;119.57;;;9.33;;
29026;SDS011;16120;48.608;9.092;2023-12-28T02:44:44;119.17;;;9.20;;
29026;SDS011;16120;48.608;9.092;2023-12-28T02:48:39;119.82;;;9.57;;
29026;SDS011;16120;48.608;9.092;2023-12-28T02:52:35;119.67;;;9.50;;
29026;SDS011;16120;48.608;9.092;2023-12-28T02:56:31;119.17;;;9.37;;
29026;SDS011;16120;48.608;9.092;2023-12-28T03:00:27;119.47;;;9.50;;
29026;SDS011;16120;48.608;9.092;2023-12-28T03:04:22;119.70;;;9.70;;
29026;SDS011;16120;48.608;9.092;2023-12-28T03:08:17;119.70;;;9.63;;
29026;SDS011;16120;48.608;9.092;2023-12-28T03:12:14;119.97;;;9.57;;
29026;SDS011;16120;48.608;9.092;2023-12-28T03:16:09;120.27;;;10.00;;
29026;SDS011;16120;48.608;9.092;2023-12-28T03:20:05;120.37;;;9.90;;
29026;SDS011;16120;48.608;9.092;2023-12-28T03:24:00;120.93;;;10.77;;
29026;SDS011;16120;48.608;9.092;2023-12-28T03:27:56;120.20;;;9.70;;
29026;SDS011;16120;48.608;9.092;2023-12-28T03:31:52;120.30;;;9.70;;
29026;SDS011;16120;48.608;9.092;2023-12-28T03:35:47;120.20;;;9.97;;
29026;SDS011;16120;48.608;9.092;2023-12-28T03:39:42;120.20;;;9.73;;
29026;SDS011;16120;48.608;9.092;2023-12-28T03:43:39;120.40;;;9.80;;
29026;SDS011;16120;48.608;9.092;2023-12-28T03:47:34;120.57;;;9.87;;
29026;SDS011;16120;48.608;9.092;2023-12-28T03:51:29;120.57;;;10.10;;
29026;SDS011;16120;48.608;9.092;2023-12-28T03:55:24;120.47;;;9.63;;
29026;SDS011;16120;48.608;9.092;2023-12-28T03:59:21;121.47;;;10.27;;
29026;SDS011;16120;48.608;9.092;2023-12-28T04:03:16;120.60;;;10.30;;
29026;SDS011;16120;48.608;9.092;2023-12-28T04:07:11;119.63;;;9.57;;
29026;SDS011;16120;48.608;9.092;2023-12-28T04:11:06;120.17;;;9.80;;
29026;SDS011;16120;48.608;9.092;2023-12-28T04:15:03;120.67;;;10.07;;
29026;SDS011;16120;48.608;9.092;2023-12-28T04:18:59;120.30;;;10.30;;
29026;SDS011;16120;48.608;9.092;2023-12-28T04:22:54;120.17;;;9.90;;
29026;SDS011;16120;48.608;9.092;2023-12-28T04:26:49;119.90;;;9.77;;
29026;SDS011;16120;48.608;9.092;2023-12-28T04:30:46;120.37;;;10.00;;
29026;SDS011;16120;48.608;9.092;2023-12-28T04:34:41;120.03;;;10.40;;
29026;SDS011;16120;48.608;9.092;2023-12-28T04:38:36;120.97;;;10.23;;
29026;SDS011;16120;48.608;9.092;2023-12-28T04:42:31;120.30;;;10.07;;
29026;SDS011;16120;48.608;9.092;2023-12-28T04:46:28;120.30;;;10.03;;
29026;SDS011;16120;48.608;9.092;2023-12-28T04:50:23;120.43;;;9.80;;
29026;SDS011;16120;48.608;9.092;2023-12-28T04:54:18;120.37;;;9.87;;
29026;SDS011;16120;48.608;9.092;2023-12-28T04:58:13;120.57;;;9.60;;
29026;SDS011;16120;48.608;9.092;2023-12-28T05:02:10;120.40;;;10.00;;
29026;SDS011;16120;48.608;9.092;2023-12-28T05:06:05;120.10;;;9.27;;
29026;SDS011;16120;48.608;9.092;2023-12-28T05:10:00;119.40;;;9.53;;
29026;SDS011;16120;48.608;9.092;2023-12-28T05:13:55;120.00;;;9.37;;
29026;SDS011;16120;48.608;9.092;2023-12-28T05:17:52;120.00;;;9.57;;
29026;SDS011;16120;48.608;9.092;2023-12-28T05:21:47;119.50;;;9.40;;
29026;SDS011;16120;48.608;9.092;2023-12-28T05:25:43;119.63;;;9.67;;
29026;SDS011;16120;48.608;9.092;2023-12-28T05:29:38;119.97;;;10.17;;
29026;SDS011;16120;48.608;9.092;2023-12-28T05:33:34;119.37;;;9.57;;
29026;SDS011;16120;48.608;9.092;2023-12-28T05:37:30;118.77;;;9.47;;
29026;SDS011;16120;48.608;9.092;2023-12-28T05:41:25;119.17;;;9.37;;
29026;SDS011;16120;48.608;9.092;2023-12-28T05:45:20;118.23;;;8.73;;
29026;SDS011;16120;48.608;9.092;2023-12-28T05:49:16;118.40;;;9.37;;
29026;SDS011;16120;48.608;9.092;2023-12-28T05:53:12;117.93;;;9.40;;
29026;SDS011;16120;48.608;9.092;2023-12-28T05:57:07;117.30;;;8.73;;
29026;SDS011;16120;48.608;9.092;2023-12-28T06:01:02;116.97;;;8.67;;
29026;SDS011;16120;48.608;9.092;2023-12-28T06:04:59;116.40;;;8.90;;
29026;SDS011;16120;48.608;9.092;2023-12-28T06:08:54;116.10;;;8.87;;
29026;SDS011;16120;48.608;9.092;2023-12-28T06:12:49;117.50;;;9.07;;
29026;SDS011;16120;48.608;9.092;2023-12-28T06:16:44;115.60;;;8.77;;
29026;SDS011;16120;48.608;9.092;2023-12-28T06:20:41;115.50;;;8.33;;
29026;SDS011;16120;48.608;9.092;2023-12-28T06:24:37;115.90;;;9.00;;
29026;SDS011;16120;48.608;9.092;2023-12-28T06:28:32;115.00;;;8.63;;
29026;SDS011;16120;48.608;9.092;2023-12-28T06:32:27;116.10;;;9.07;;
29026;SDS011;16120;48.608;9.092;2023-12-28T06:36:24;115.50;;;8.70;;
29026;SDS011;16120;48.608;9.092;2023-12-28T06:40:19;116.07;;;9.27;;
29026;SDS011;16120;48.608;9.092;2023-12-28T06:44:14;114.90;;;9.00;;
29026;SDS011;16120;48.608;9.092;2023-12-28T06:48:09;115.17;;;8.53;;
29026;SDS011;16120;48.608;9.092;2023-12-28T06:52:06;115.60;;;9.50;;
29026;SDS011;16120;48.608;9.092;2023-12-28T06:56:01;114.80;;;8.53;;
29026;SDS011;16120;48.608;9.092;2023-12-28T06:59:56;115.10;;;9.10;;
29026;SDS011;16120;48.608;9.092;2023-12-28T07:03:52;115.47;;;9.03;;
29026;SDS011;16120;48.608;9.092;2023-12-28T07:07:48;114.80;;;8.73;;
29026;SDS011;16120;48.608;9.092;2023-12-28T07:11:43;115.50;;;8.67;;
29026;SDS011;16120;48.608;9.092;2023-12-28T07:15:38;115.17;;;9.47;;
29026;SDS011;16120;48.608;9.092;2023-12-28T07:19:34;114.37;;;8.60;;
29026;SDS011;16120;48.608;9.092;2023-12-28T07:23:30;115.47;;;8.33;;
29026;SDS011;16120;48.608;9.092;2023-12-28T07:27:25;114.83;;;9.27;;
29026;SDS011;16120;48.608;9.092;2023-12-28T07:31:23;115.03;;;9.60;;
29026;SDS011;16120;48.608;9.092;2023-12-28T07:35:19;114.07;;;8.47;;
29026;SDS011;16120;48.608;9.092;2023-12-28T07:39:15;115.67;;;9.53;;
29026;SDS011;16120;48.608;9.092;2023-12-28T07:43:10;114.73;;;8.37;;
29026;SDS011;16120;48.608;9.092;2023-12-28T07:47:05;114.87;;;9.43;;
29026;SDS011;16120;48.608;9.092;2023-12-28T07:51:03;114.47;;;8.53;;
29026;SDS011;16120;48.608;9.092;2023-12-28T07:55:00;114.20;;;8.70;;
29026;SDS011;16120;48.608;9.092;2023-12-28T07:58:55;114.60;;;8.73;;
29026;SDS011;16120;48.608;9.092;2023-12-28T08:02:50;114.07;;;8.77;;
29026;SDS011;16120;48.608;9.092;2023-12-28T08:06:45;113.93;;;8.40;;
29026;SDS011;16120;48.608;9.092;2023-12-28T08:10:42;114.50;;;8.77;;
29026;SDS011;16120;48.608;9.092;2023-12-28T08:14:37;114.33;;;9.00;;
29026;SDS011;16120;48.608;9.092;2023-12-28T08:18:32;114.30;;;8.80;;
29026;SDS011;16120;48.608;9.092;2023-12-28T08:22:27;113.83;;;8.60;;
29026;SDS011;16120;48.608;9.092;2023-12-28T08:26:24;114.90;;;8.90;;
29026;SDS011;16120;48.608;9.092;2023-12-28T08:30:19;113.90;;;8.80;;
29026;SDS011;16120;48.608;9.092;2023-12-28T08:34:14;113.70;;;9.27;;
29026;SDS011;16120;48.608;9.092;2023-12-28T08:38:10;114.87;;;9.33;;
29026;SDS011;16120;48.608;9.092;2023-12-28T08:42:07;113.90;;;8.40;;
29026;SDS011;16120;48.608;9.092;2023-12-28T08:46:02;114.27;;;8.13;;
29026;SDS011;16120;48.608;9.092;2023-12-28T08:49:57;114.47;;;8.90;;
29026;SDS011;16120;48.608;9.092;2023-12-28T08:53:52;114.03;;;9.17;;
29026;SDS011;16120;48.608;9.092;2023-12-28T08:57:49;112.97;;;8.23;;
29026;SDS011;16120;48.608;9.092;2023-12-28T09:01:44;114.13;;;8.50;;
29026;SDS011;16120;48.608;9.092;2023-12-28T09:05:39;114.27;;;8.63;;
29026;SDS011;16120;48.608;9.092;2023-12-28T09:09:34;113.70;;;8.33;;
29026;SDS011;16120;48.608;9.092;2023-12-28T09:13:31;113.60;;;8.30;;
29026;SDS011;16120;48.608;9.092;2023-12-28T09:17:26;114.30;;;9.40;;
29026;SDS011;16120;48.608;9.092;2023-12-28T09:21:21;113.90;;;8.90;;
29026;SDS011;16120;48.608;9.092;2023-12-28T09:25:17;113.57;;;8.17;;
29026;SDS011;16120;48.608;9.092;2023-12-28T09:29:13;113.83;;;9.10;;
29026;SDS011;16120;48.608;9.092;2023-12-28T09:33:08;113.27;;;8.63;;
29026;SDS011;16120;48.608;9.092;2023-12-28T09:37:03;113.37;;;8.40;;
29026;SDS011;16120;48.608;9.092;2023-12-28T09:41:01;113.20;;;8.83;;
29026;SDS011;16120;48.608;9.092;2023-12-28T09:45:01;112.93;;;8.10;;
29026;SDS011;16120;48.608;9.092;2023-12-28T09:48:56;113.17;;;8.17;;
29026;SDS011;16120;48.608;9.092;2023-12-28T09:52:52;112.90;;;8.27;;
29026;SDS011;16120;48.608;9.092;2023-12-28T09:56:48;112.60;;;8.17;;
29026;SDS011;16120;48.608;9.092;2023-12-28T10:00:45;112.40;;;8.17;;
29026;SDS011;16120;48.608;9.092;2023-12-28T10:04:40;111.70;;;8.17;;
29026;SDS011;16120;48.608;9.092;2023-12-28T10:08:36;111.47;;;8.10;;
29026;SDS011;16120;48.608;9.092;2023-12-28T10:12:31;111.37;;;7.80;;
29026;SDS011;16120;48.608;9.092;2023-12-28T10:16:28;110.87;;;7.90;;
29026;SDS011;16120;48.608;9.092;2023-12-28T10:20:25;110.77;;;8.03;;
29026;SDS011;16120;48.608;9.092;2023-12-28T10:24:21;110.83;;;7.77;;
29026;SDS011;16120;48.608;9.092;2023-12-28T10:28:16;110.82;;;7.78;;
29026;SDS011;16120;48.608;9.092;2023-12-28T10:32:12;110.60;;;8.07;;
29026;SDS011;16120;48.608;9.092;2023-12-28T10:36:08;109.90;;;7.73;;
29026;SDS011;16120;48.608;9.092;2023-12-28T10:40:03;110.00;;;7.70;;
29026;SDS011;16120;48.608;9.092;2023-12-28T10:44:01;109.53;;;7.43;;
29026;SDS011;16120;48.608;9.092;2023-12-28T10:48:00;109.40;;;7.43;;
29026;SDS011;16120;48.608;9.092;2023-12-28T10:51:59;109.23;;;7.80;;
29026;SDS011;16120;48.608;9.092;2023-12-28T10:55:59;109.40;;;7.53;;
29026;SDS011;16120;48.608;9.092;2023-12-28T10:59:58;109.27;;;7.73;;
29026;SDS011;16120;48.608;9.092;2023-12-28T11:03:59;109.50;;;8.10;;
29026;SDS011;16120;48.608;9.092;2023-12-28T11:07:57;109.17;;;7.87;;
29026;SDS011;16120;48.608;9.092;2023-12-28T11:11:53;109.20;;;8.00;;
29026;SDS011;16120;48.608;9.092;2023-12-28T11:15:48;109.00;;;7.73;;
29026;SDS011;16120;48.608;9.092;2023-12-28T11:19:45;108.60;;;7.97;;
29026;SDS011;16120;48.608;9.092;2023-12-28T11:23:40;109.00;;;8.40;;
29026;SDS011;16120;48.608;9.092;2023-12-28T11:27:35;108.32;;;8.13;;
29026;SDS011;16120;48.608;9.092;2023-12-28T11:31:31;108.30;;;8.00;;
29026;SDS011;16120;48.608;9.092;2023-12-28T11:35:33;108.77;;;7.97;;
29026;SDS011;16120;48.608;9.092;2023-12-28T11:39:29;108.70;;;8.03;;
29026;SDS011;16120;48.608;9.092;2023-12-28T11:43:24;109.07;;;8.13;;
29026;SDS011;16120;48.608;9.092;2023-12-28T11:47:22;108.87;;;7.93;;
29026;SDS011;16120;48.608;9.092;2023-12-28T11:51:19;108.67;;;7.83;;
29026;SDS011;16120;48.608;9.092;2023-12-28T11:55:20;107.87;;;7.80;;
29026;SDS011;16120;48.608;9.092;2023-12-28T11:59:15;108.57;;;8.07;;
29026;SDS011;16120;48.608;9.092;2023-12-28T12:03:12;108.47;;;8.07;;
29026;SDS011;16120;48.608;9.092;2023-12-28T12:07:08;108.40;;;8.20;;
29026;SDS011;16120;48.608;9.092;2023-12-28T12:11:04;107.90;;;7.73;;
29026;SDS011;16120;48.608;9.092;2023-12-28T12:14:59;109.27;;;7.97;;
29026;SDS011;16120;48.608;9.092;2023-12-28T12:18:55;107.93;;;7.70;;
29026;SDS011;16120;48.608;9.092;2023-12-28T12:22:51;108.87;;;7.97;;
29026;SDS011;16120;48.608;9.092;2023-12-28T12:26:46;108.77;;;7.97;;
29026;SDS011;16120;48.608;9.092;2023-12-28T12:30:48;109.67;;;8.27;;
29026;SDS011;16120;48.608;9.092;2023-12-28T12:34:43;108.73;;;8.30;;
29026;SDS011;16120;48.608;9.092;2023-12-28T12:38:40;108.72;;;7.72;;
29026;SDS011;16120;48.608;9.092;2023-12-28T12:42:35;108.67;;;8.17;;
29026;SDS011;16120;48.608;9.092;2023-12-28T12:46:31;108.80;;;8.00;;
29026;SDS011;16120;48.608;9.092;2023-12-28T12:50:26;108.80;;;7.90;;
29026;SDS011;16120;48.608;9.092;2023-12-28T12:54:23;108.37;;;7.77;;
29026;SDS011;16120;48.608;9.092;2023-12-28T12:58:18;108.30;;;7.63;;
29026;SDS011;16120;48.608;9.092;2023-12-28T13:02:13;108.30;;;8.10;;
29026;SDS011;16120;48.608;9.092;2023-12-28T13:06:08;108.20;;;7.77;;
29026;SDS011;16120;48.608;9.092;2023-12-28T13:10:05;108.60;;;7.87;;
29026;SDS011;16120;48.608;9.092;2023-12-28T13:14:00;109.10;;;8.27;;
29026;SDS011;16120;48.608;9.092;2023-12-28T13:17:56;109.07;;;8.00;;
29026;SDS011;16120;48.608;9.092;2023-12-28T13:21:51;108.27;;;7.77;;
29026;SDS011;16120;48.608;9.092;2023-12-28T13:25:47;108.50;;;7.67;;
29026;SDS011;16120;48.608;9.092;2023-12-28T13:29:43;108.20;;;8.07;;
29026;SDS011;16120;48.608;9.092;2023-12-28T13:33:38;108.27;;;8.03;;
29026;SDS011;16120;48.608;9.092;2023-12-28T13:37:33;108.60;;;8.07;;
29026;SDS011;16120;48.608;9.092;2023-12-28T13:41:29;108.27;;;7.80;;
29026;SDS011;16120;48.608;9.092;2023-12-28T13:45:25;108.23;;;8.03;;
29026;SDS011;16120;48.608;9.092;2023-12-28T13:49:20;108.47;;;7.80;;
29026;SDS011;16120;48.608;9.092;2023-12-28T13:53:15;108.70;;;8.23;;
29026;SDS011;16120;48.608;9.092;2023-12-28T13:57:12;108.47;;;8.20;;
29026;SDS011;16120;48.608;9.092;2023-12-28T14:01:07;109.37;;;8.70;;
29026;SDS011;16120;48.608;9.092;2023-12-28T14:05:02;108.50;;;8.20;;
29026;SDS011;16120;48.608;9.092;2023-12-28T14:08:57;108.50;;;8.03;;
29026;SDS011;16120;48.608;9.092;2023-12-28T14:12:54;109.27;;;8.23;;
29026;SDS011;16120;48.608;9.092;2023-12-28T14:16:49;109.07;;;8.10;;
29026;SDS011;16120;48.608;9.092;2023-12-28T14:20:44;109.03;;;7.70;;
29026;SDS011;16120;48.608;9.092;2023-12-28T14:24:40;109.20;;;8.37;;
29026;SDS011;16120;48.608;9.092;2023-12-28T14:28:37;109.47;;;8.30;;
29026;SDS011;16120;48.608;9.092;2023-12-28T14:32:32;109.47;;;8.00;;
29026;SDS011;16120;48.608;9.092;2023-12-28T14:36:29;109.20;;;8.07;;
29026;SDS011;16120;48.608;9.092;2023-12-28T14:40:25;109.53;;;8.63;;
29026;SDS011;16120;48.608;9.092;2023-12-28T14:44:21;109.70;;;8.30;;
29026;SDS011;16120;48.608;9.092;2023-12-28T14:48:17;109.17;;;8.00;;
29026;SDS011;16120;48.608;9.092;2023-12-28T14:52:12;109.83;;;8.60;;
29026;SDS011;16120;48.608;9.092;2023-12-28T14:56:07;109.40;;;8.00;;
29026;SDS011;16120;48.608;9.092;2023-12-28T15:00:04;109.27;;;7.90;;
29026;SDS011;16120;48.608;9.092;2023-12-28T15:04:00;109.27;;;7.93;;
29026;SDS011;16120;48.608;9.092;2023-12-28T15:07:55;109.37;;;7.60;;
29026;SDS011;16120;48.608;9.092;2023-12-28T15:11:50;109.40;;;8.07;;
29026;SDS011;16120;48.608;9.092;2023-12-28T15:15:47;109.40;;;7.67;;
29026;SDS011;16120;48.608;9.092;2023-12-28T15:19:43;109.70;;;7.77;;
29026;SDS011;16120;48.608;9.092;2023-12-28T15:23:38;109.47;;;7.67;;
29026;SDS011;16120;48.608;9.092;2023-12-28T15:27:34;110.27;;;7.60;;
29026;SDS011;16120;48.608;9.092;2023-12-28T15:31:30;109.50;;;7.50;;
29026;SDS011;16120;48.608;9.092;2023-12-28T15:35:25;109.53;;;7.57;;
29026;SDS011;16120;48.608;9.092;2023-12-28T15:39:21;109.97;;;7.73;;
29026;SDS011;16120;48.608;9.092;2023-12-28T15:43:16;109.70;;;7.63;;
29026;SDS011;16120;48.608;9.092;2023-12-28T15:47:12;109.67;;;7.53;;
29026;SDS011;16120;48.608;9.092;2023-12-28T15:51:08;110.17;;;7.70;;
29026;SDS011;16120;48.608;9.092;2023-12-28T15:55:03;109.87;;;7.70;;
29026;SDS011;16120;48.608;9.092;2023-12-28T15:58:58;110.60;;;8.23;;
29026;SDS011;16120;48.608;9.092;2023-12-28T16:02:55;110.50;;;7.90;;
29026;SDS011;16120;48.608;9.092;2023-12-28T16:06:50;110.27;;;7.57;;
29026;SDS011;16120;48.608;9.092;2023-12-28T16:10:45;109.87;;;7.60;;
29026;SDS011;16120;48.608;9.092;2023-12-28T16:14:41;110.37;;;7.97;;
29026;SDS011;16120;48.608;9.092;2023-12-28T16:18:38;110.07;;;7.57;;
29026;SDS011;16120;48.608;9.092;2023-12-28T16:22:33;110.60;;;8.30;;
29026;SDS011;16120;48.608;9.092;2023-12-28T16:26:28;110.50;;;7.93;;
29026;SDS011;16120;48.608;9.092;2023-12-28T16:30:24;110.37;;;7.80;;
29026;SDS011;16120;48.608;9.092;2023-12-28T16:34:20;110.37;;;8.10;;
29026;SDS011;16120;48.608;9.092;2023-12-28T16:38:15;110.37;;;7.70;;
29026;SDS011;16120;48.608;9.092;2023-12-28T16:42:10;110.23;;;7.87;;
29026;SDS011;16120;48.608;9.092;2023-12-28T16:46:06;110.37;;;7.70;;
29026;SDS011;16120;48.608;9.092;2023-12-28T16:50:02;110.40;;;7.87;;
29026;SDS011;16120;48.608;9.092;2023-12-28T16:53:58;110.30;;;7.63;;
29026;SDS011;16120;48.608;9.092;2023-12-28T16:57:53;110.57;;;7.60;;
29026;SDS011;16120;48.608;9.092;2023-12-28T17:01:48;110.65;;;7.43;;
29026;SDS011;16120;48.608;9.092;2023-12-28T17:05:45;110.82;;;7.65;;
29026;SDS011;16120;48.608;9.092;2023-12-28T17:09:41;110.90;;;7.73;;
29026;SDS011;16120;48.608;9.092;2023-12-28T17:13:36;110.80;;;7.43;;
29026;SDS011;16120;48.608;9.092;2023-12-28T17:17:32;111.00;;;7.53;;
29026;SDS011;16120;48.608;9.092;2023-12-28T17:21:30;110.80;;;7.43;;
29026;SDS011;16120;48.608;9.092;2023-12-28T17:25:29;110.53;;;7.60;;
29026;SDS011;16120;48.608;9.092;2023-12-28T17:29:26;111.17;;;7.60;;
29026;SDS011;16120;48.608;9.092;2023-12-28T17:33:24;110.80;;;7.47;;
29026;SDS011;16120;48.608;9.092;2023-12-28T17:37:21;111.10;;;7.77;;
29026;SDS011;16120;48.608;9.092;2023-12-28T17:41:17;111.37;;;8.10;;
29026;SDS011;16120;48.608;9.092;2023-12-28T17:45:13;111.27;;;8.10;;
29026;SDS011;16120;48.608;9.092;2023-12-28T17:49:10;111.47;;;8.00;;
29026;SDS011;16120;48.608;9.092;2023-12-28T17:53:07;111.13;;;7.87;;
29026;SDS011;16120;48.608;9.092;2023-12-28T17:57:02;111.40;;;7.77;;
29026;SDS011;16120;48.608;9.092;2023-12-28T18:00:58;111.60;;;8.07;;
29026;SDS011;16120;48.608;9.092;2023-12-28T18:04:53;111.20;;;7.73;;
29026;SDS011;16120;48.608;9.092;2023-12-28T18:08:49;111.70;;;7.80;;
29026;SDS011;16120;48.608;9.092;2023-12-28T18:12:45;111.83;;;7.87;;
29026;SDS011;16120;48.608;9.092;2023-12-28T18:16:40;111.47;;;7.80;;
29026;SDS011;16120;48.608;9.092;2023-12-28T18:20:35;111.50;;;7.80;;
29026;SDS011;16120;48.608;9.092;2023-12-28T18:24:31;111.67;;;8.20;;
29026;SDS011;16120;48.608;9.092;2023-12-28T18:28:27;111.77;;;7.97;;
29026;SDS011;16120;48.608;9.092;2023-12-28T18:32:22;111.63;;;7.97;;
29026;SDS011;16120;48.608;9.092;2023-12-28T18:36:17;111.77;;;8.10;;
29026;SDS011;16120;48.608;9.092;2023-12-28T18:40:14;111.57;;;7.63;;
29026;SDS011;16120;48.608;9.092;2023-12-28T18:44:09;111.53;;;7.77;;
29026;SDS011;16120;48.608;9.092;2023-12-28T18:48:04;111.77;;;8.07;;
29026;SDS011;16120;48.608;9.092;2023-12-28T18:52:00;111.67;;;7.97;;
29026;SDS011;16120;48.608;9.092;2023-12-28T18:55:56;111.37;;;7.97;;
29026;SDS011;16120;48.608;9.092;2023-12-28T18:59:52;111.60;;;8.00;;
29026;SDS011;16120;48.608;9.092;2023-12-28T19:03:47;112.00;;;8.30;;
29026;SDS011;16120;48.608;9.092;2023-12-28T19:07:42;111.67;;;8.10;;
29026;SDS011;16120;48.608;9.092;2023-12-28T19:11:39;111.97;;;8.20;;
29026;SDS011;16120;48.608;9.092;2023-12-28T19:15:34;111.40;;;7.77;;
29026;SDS011;16120;48.608;9.092;2023-12-28T19:19:29;111.77;;;7.77;;
29026;SDS011;16120;48.608;9.092;2023-12-28T19:23:24;111.87;;;8.00;;
29026;SDS011;16120;48.608;9.092;2023-12-28T19:27:21;112.07;;;8.30;;
29026;SDS011;16120;48.608;9.092;2023-12-28T19:31:16;111.30;;;7.97;;
29026;SDS011;16120;48.608;9.092;2023-12-28T19:35:11;111.40;;;8.40;;
29026;SDS011;16120;48.608;9.092;2023-12-28T19:39:07;111.80;;;8.33;;
29026;SDS011;16120;48.608;9.092;2023-12-28T19:43:03;111.77;;;8.20;;
29026;SDS011;16120;48.608;9.092;2023-12-28T19:46:58;111.40;;;8.13;;
29026;SDS011;16120;48.608;9.092;2023-12-28T19:50:54;111.60;;;7.83;;
29026;SDS011;16120;48.608;9.092;2023-12-28T19:54:49;111.43;;;7.78;;
29026;SDS011;16120;48.608;9.092;2023-12-28T19:58:45;111.50;;;8.33;;
29026;SDS011;16120;48.608;9.092;2023-12-28T20:02:40;111.40;;;8.40;;
29026;SDS011;16120;48.608;9.092;2023-12-28T20:06:36;111.67;;;7.97;;
29026;SDS011;16120;48.608;9.092;2023-12-28T20:10:31;111.67;;;8.27;;
29026;SDS011;16120;48.608;9.092;2023-12-28T20:14:27;111.37;;;7.87;;
29026;SDS011;16120;48.608;9.092;2023-12-28T20:18:22;111.30;;;7.93;;
29026;SDS011;16120;48.608;9.092;2023-12-28T20:22:18;111.77;;;8.47;;
29026;SDS011;16120;48.608;9.092;2023-12-28T20:26:13;111.37;;;7.90;;
29026;SDS011;16120;48.608;9.092;2023-12-28T20:30:10;111.20;;;7.53;;
29026;SDS011;16120;48.608;9.092;2023-12-28T20:34:06;111.47;;;8.07;;
29026;SDS011;16120;48.608;9.092;2023-12-28T20:38:01;111.77;;;8.07;;
29026;SDS011;16120;48.608;9.092;2023-12-28T20:41:56;111.47;;;7.70;;
29026;SDS011;16120;48.608;9.092;2023-12-28T20:45:52;111.20;;;8.00;;
29026;SDS011;16120;48.608;9.092;2023-12-28T20:49:48;111.20;;;8.60;;
29026;SDS011;16120;48.608;9.092;2023-12-28T20:53:43;111.73;;;8.40;;
29026;SDS011;16120;48.608;9.092;2023-12-28T20:57:38;111.28;;;7.80;;
29026;SDS011;16120;48.608;9.092;2023-12-28T21:01:34;111.10;;;7.70;;
29026;SDS011;16120;48.608;9.092;2023-12-28T21:05:30;111.00;;;7.87;;
29026;SDS011;16120;48.608;9.092;2023-12-28T21:09:25;111.03;;;7.87;;
29026;SDS011;16120;48.608;9.092;2023-12-28T21:13:20;111.20;;;7.77;;
29026;SDS011;16120;48.608;9.092;2023-12-28T21:17:17;111.27;;;7.73;;
29026;SDS011;16120;48.608;9.092;2023-12-28T21:21:12;111.37;;;7.67;;
29026;SDS011;16120;48.608;9.092;2023-12-28T21:25:07;111.30;;;7.67;;
29026;SDS011;16120;48.608;9.092;2023-12-28T21:29:02;111.50;;;7.93;;
29026;SDS011;16120;48.608;9.092;2023-12-28T21:32:59;111.60;;;8.03;;
29026;SDS011;16120;48.608;9.092;2023-12-28T21:36:54;111.57;;;7.77;;
29026;SDS011;16120;48.608;9.092;2023-12-28T21:40:49;111.27;;;7.77;;
29026;SDS011;16120;48.608;9.092;2023-12-28T21:44:44;111.27;;;7.97;;
29026;SDS011;16120;48.608;9.092;2023-12-28T21:48:41;111.07;;;7.77;;
29026;SDS011;16120;48.608;9.092;2023-12-28T21:52:36;111.60;;;8.20;;
29026;SDS011;16120;48.608;9.092;2023-12-28T21:56:31;111.33;;;8.17;;
29026;SDS011;16120;48.608;9.092;2023-12-28T22:00:26;111.77;;;7.83;;
29026;SDS011;16120;48.608;9.092;2023-12-28T22:04:23;111.30;;;7.67;;
29026;SDS011;16120;48.608;9.092;2023-12-28T22:08:18;112.27;;;7.93;;
29026;SDS011;16120;48.608;9.092;2023-12-28T22:12:13;111.87;;;8.10;;
29026;SDS011;16120;48.608;9.092;2023-12-28T22:16:09;111.67;;;7.70;;
29026;SDS011;16120;48.608;9.092;2023-12-28T22:20:06;111.47;;;7.80;;
29026;SDS011;16120;48.608;9.092;2023-12-28T22:24:01;111.70;;;8.00;;
29026;SDS011;16120;48.608;9.092;2023-12-28T22:27:56;111.60;;;8.17;;
29026;SDS011;16120;48.608;9.092;2023-12-28T22:31:51;111.60;;;7.63;;
29026;SDS011;16120;48.608;9.092;2023-12-28T22:35:48;112.27;;;8.67;;
29026;SDS011;16120;48.608;9.092;2023-12-28T22:39:43;111.80;;;7.60;;
29026;SDS011;16120;48.608;9.092;2023-12-28T22:43:38;111.90;;;8.07;;
29026;SDS011;16120;48.608;9.092;2023-12-28T22:47:33;111.50;;;7.80;;
29026;SDS011;16120;48.608;9.092;2023-12-28T22:51:30;111.80;;;7.90;;
29026;SDS011;16120;48.608;9.092;2023-12-28T22:55:25;111.43;;;7.80;;
29026;SDS011;16120;48.608;9.092;2023-12-28T22:59:20;111.90;;;7.90;;